createdAt,value
2017-01-20T00:00:25.137Z,0
2017-01-20T00:01:25.139Z,0
2017-01-20T00:06:25.213Z,0
2017-01-20T00:07:25.233Z,0
2017-01-20T00:08:25.238Z,0
2017-01-20T00:09:25.255Z,0
2017-01-20T00:10:25.268Z,0
2017-01-20T00:11:25.284Z,0
2017-01-20T00:12:25.300Z,0
2017-01-20T00:13:25.317Z,0
2017-01-20T00:14:25.721Z,0
2017-01-20T00:15:40.258Z,0
2017-01-20T00:16:40.272Z,0
2017-01-20T00:17:25.368Z,0
2017-01-20T00:19:25.400Z,0
2017-01-20T00:20:40.332Z,0
2017-01-20T00:21:25.432Z,0
2017-01-20T00:22:25.444Z,0
2017-01-20T00:23:25.456Z,0
2017-01-20T00:24:40.389Z,0
2017-01-20T00:25:40.408Z,0
2017-01-20T00:26:25.501Z,0
2017-01-20T00:27:40.435Z,0
2017-01-20T00:28:25.529Z,0
2017-01-20T00:29:25.548Z,0
2017-01-20T00:30:40.475Z,0
2017-01-20T00:31:25.574Z,0
2017-01-20T00:32:25.586Z,0
2017-01-20T00:33:25.605Z,0
2017-01-20T00:34:25.616Z,0
2017-01-20T00:35:25.677Z,0
2017-01-20T00:36:25.943Z,0
2017-01-20T00:38:25.670Z,0
2017-01-20T00:39:25.691Z,0
2017-01-20T00:40:40.618Z,0
2017-01-20T00:41:25.719Z,0
2017-01-20T00:42:25.734Z,0
2017-01-20T00:43:25.744Z,0
2017-01-20T00:44:25.765Z,0
2017-01-20T00:45:25.773Z,0
2017-01-20T00:46:40.706Z,0
2017-01-20T00:47:25.800Z,0
2017-01-20T00:48:25.818Z,0
2017-01-20T00:49:25.833Z,0
2017-01-20T00:50:25.845Z,0
2017-01-20T00:51:25.872Z,0
2017-01-20T00:52:25.880Z,0
2017-01-20T00:53:25.890Z,0
2017-01-20T00:54:25.908Z,0
2017-01-20T00:55:25.917Z,0
2017-01-20T00:56:40.858Z,0
2017-01-20T00:57:25.944Z,0
2017-01-20T00:58:25.963Z,0
2017-01-20T00:59:25.976Z,0
2017-01-20T01:00:26.021Z,0
2017-01-20T01:01:26.034Z,0
2017-01-20T01:02:40.937Z,0
2017-01-20T01:03:26.035Z,0
2017-01-20T01:04:26.046Z,0
2017-01-20T01:05:26.063Z,0
2017-01-20T01:06:26.075Z,0
2017-01-20T01:07:26.097Z,0
2017-01-20T01:09:26.124Z,0
2017-01-20T01:10:26.137Z,0
2017-01-20T01:11:26.151Z,0
2017-01-20T01:12:41.084Z,0
2017-01-20T01:13:26.181Z,0
2017-01-20T01:14:26.203Z,0
2017-01-20T01:15:26.208Z,0
2017-01-20T01:16:26.221Z,0
2017-01-20T01:17:26.241Z,0
2017-01-20T01:18:26.248Z,0
2017-01-20T01:19:26.266Z,0
2017-01-20T01:20:41.196Z,0
2017-01-20T01:21:26.298Z,0
2017-01-20T01:22:26.305Z,0
2017-01-20T01:23:26.347Z,0
2017-01-20T01:24:26.335Z,0
2017-01-20T01:25:26.349Z,0
2017-01-20T01:26:26.374Z,0
2017-01-20T01:27:41.304Z,0
2017-01-20T01:28:26.392Z,0
2017-01-20T01:29:26.410Z,0
2017-01-20T01:30:26.421Z,0
2017-01-20T01:31:26.439Z,0
2017-01-20T01:32:41.372Z,0
2017-01-20T01:33:26.470Z,0
2017-01-20T01:34:26.480Z,0
2017-01-20T01:35:41.413Z,0
2017-01-20T01:36:26.515Z,0
2017-01-20T01:37:41.455Z,0
2017-01-20T01:38:26.539Z,0
2017-01-20T01:40:41.489Z,0
2017-01-20T01:41:26.583Z,0
2017-01-20T01:42:26.596Z,0
2017-01-20T01:43:26.614Z,0
2017-01-20T01:44:26.645Z,0
2017-01-20T01:45:26.646Z,0
2017-01-20T01:46:41.577Z,0
2017-01-20T01:47:26.671Z,0
2017-01-20T01:48:26.689Z,0
2017-01-20T01:49:41.620Z,0
2017-01-20T01:50:26.714Z,0
2017-01-20T01:51:41.646Z,0
2017-01-20T01:52:41.665Z,0
2017-01-20T01:53:26.758Z,0
2017-01-20T01:54:26.776Z,0
2017-01-20T01:55:26.787Z,0
2017-01-20T01:56:26.802Z,0
2017-01-20T01:57:26.814Z,0
2017-01-20T01:58:26.831Z,0
2017-01-20T01:59:41.767Z,0
2017-01-20T02:00:26.862Z,0
2017-01-20T02:01:26.878Z,0
2017-01-20T02:02:26.892Z,0
2017-01-20T02:03:26.902Z,0
2017-01-20T02:04:26.916Z,0
2017-01-20T02:05:41.858Z,0
2017-01-20T02:06:41.866Z,0
2017-01-20T02:07:41.879Z,0
2017-01-20T02:08:26.978Z,0
2017-01-20T02:09:26.999Z,0
2017-01-20T02:10:41.925Z,0
2017-01-20T02:11:27.020Z,0
2017-01-20T02:12:27.037Z,0
2017-01-20T02:13:27.052Z,0
2017-01-20T02:15:41.996Z,0
2017-01-20T02:16:27.094Z,0
2017-01-20T02:17:27.111Z,0
2017-01-20T02:18:27.126Z,0
2017-01-20T02:19:27.138Z,0
2017-01-20T02:21:27.193Z,0
2017-01-20T02:22:42.101Z,0
2017-01-20T02:23:27.199Z,0
2017-01-20T02:24:27.213Z,0
2017-01-20T02:25:27.223Z,0
2017-01-20T02:26:42.160Z,0
2017-01-20T02:27:27.260Z,0
2017-01-20T02:28:27.273Z,0
2017-01-20T02:29:27.297Z,0
2017-01-20T02:30:27.299Z,0
2017-01-20T02:31:42.234Z,0
2017-01-20T02:32:27.332Z,0
2017-01-20T02:33:27.345Z,0
2017-01-20T02:34:27.361Z,0
2017-01-20T02:35:42.293Z,0
2017-01-20T02:36:42.319Z,0
2017-01-20T02:37:27.403Z,0
2017-01-20T02:38:27.421Z,0
2017-01-20T02:39:27.428Z,0
2017-01-20T02:40:42.362Z,0
2017-01-20T02:41:42.390Z,0
2017-01-20T02:42:27.476Z,0
2017-01-20T02:43:27.491Z,0
2017-01-20T02:44:27.505Z,0
2017-01-20T02:45:27.519Z,0
2017-01-20T02:46:27.538Z,0
2017-01-20T02:47:42.464Z,0
2017-01-20T02:48:27.564Z,0
2017-01-20T02:49:27.578Z,0
2017-01-20T02:50:27.590Z,0
2017-01-20T02:51:42.527Z,0
2017-01-20T02:52:27.621Z,0
2017-01-20T02:53:27.635Z,0
2017-01-20T02:54:27.645Z,0
2017-01-20T02:55:27.667Z,0
2017-01-20T02:56:27.783Z,0
2017-01-20T02:57:27.695Z,0
2017-01-20T02:58:27.713Z,0
2017-01-20T02:59:42.641Z,0
2017-01-20T03:00:27.742Z,0
2017-01-20T03:01:28.146Z,0
2017-01-20T03:02:42.687Z,0
2017-01-20T03:03:27.785Z,0
2017-01-20T03:04:27.797Z,0
2017-01-20T03:05:27.815Z,0
2017-01-20T03:06:27.827Z,0
2017-01-20T03:07:27.842Z,0
2017-01-20T03:08:27.856Z,0
2017-01-20T03:09:27.870Z,0
2017-01-20T03:10:27.885Z,0
2017-01-20T03:11:42.820Z,0
2017-01-20T03:13:27.929Z,0
2017-01-20T03:14:42.865Z,0
2017-01-20T03:15:27.956Z,0
2017-01-20T03:16:27.975Z,0
2017-01-20T03:17:42.935Z,0
2017-01-20T03:18:28.004Z,0
2017-01-20T03:19:28.022Z,0
2017-01-20T03:20:28.031Z,0
2017-01-20T03:21:28.047Z,0
2017-01-20T03:22:28.064Z,0
2017-01-20T03:23:28.075Z,0
2017-01-20T03:24:28.093Z,0
2017-01-20T03:25:28.105Z,0
2017-01-20T03:26:43.037Z,0
2017-01-20T03:28:28.155Z,0
2017-01-20T03:29:28.268Z,0
2017-01-20T03:30:28.178Z,0
2017-01-20T03:31:28.197Z,0
2017-01-20T03:32:28.208Z,0
2017-01-20T03:33:28.228Z,0
2017-01-20T03:34:43.155Z,0
2017-01-20T03:35:43.175Z,0
2017-01-20T03:36:28.266Z,0
2017-01-20T03:37:28.283Z,0
2017-01-20T03:38:28.294Z,0
2017-01-20T03:39:28.312Z,0
2017-01-20T03:40:28.328Z,0
2017-01-20T03:41:28.342Z,0
2017-01-20T03:42:43.271Z,0
2017-01-20T03:43:28.372Z,0
2017-01-20T03:44:43.302Z,0
2017-01-20T03:45:43.318Z,0
2017-01-20T03:46:28.440Z,0
2017-01-20T03:47:43.376Z,0
2017-01-20T03:48:28.445Z,0
2017-01-20T03:49:28.485Z,0
2017-01-20T03:50:43.390Z,0
2017-01-20T03:51:28.500Z,0
2017-01-20T03:52:28.498Z,0
2017-01-20T03:53:28.518Z,0
2017-01-20T03:54:28.533Z,0
2017-01-20T03:55:28.562Z,0
2017-01-20T03:56:28.559Z,0
2017-01-20T03:57:28.572Z,0
2017-01-20T03:58:28.595Z,0
2017-01-20T03:59:28.999Z,0
2017-01-20T04:00:43.537Z,0
2017-01-20T04:01:28.637Z,0
2017-01-20T04:02:43.565Z,0
2017-01-20T04:04:28.678Z,0
2017-01-20T04:05:28.693Z,0
2017-01-20T04:06:43.623Z,0
2017-01-20T04:07:28.771Z,0
2017-01-20T04:08:28.736Z,0
2017-01-20T04:09:28.749Z,0
2017-01-20T04:10:28.769Z,0
2017-01-20T04:11:28.780Z,0
2017-01-20T04:12:28.794Z,0
2017-01-20T04:13:28.811Z,0
2017-01-20T04:14:28.823Z,0
2017-01-20T04:16:28.856Z,0
2017-01-20T04:17:28.867Z,0
2017-01-20T04:18:28.890Z,0
2017-01-20T04:20:28.913Z,0
2017-01-20T04:21:28.928Z,0
2017-01-20T04:22:43.859Z,0
2017-01-20T04:23:28.956Z,0
2017-01-20T04:24:28.969Z,0
2017-01-20T04:25:28.985Z,0
2017-01-20T04:26:28.997Z,0
2017-01-20T04:27:29.014Z,0
2017-01-20T04:28:29.028Z,0
2017-01-20T04:29:29.043Z,0
2017-01-20T04:30:43.973Z,0
2017-01-20T04:31:29.071Z,0
2017-01-20T04:32:29.084Z,0
2017-01-20T04:33:44.020Z,0
2017-01-20T04:34:44.033Z,0
2017-01-20T04:35:29.133Z,0
2017-01-20T04:36:29.143Z,0
2017-01-20T04:37:44.079Z,0
2017-01-20T04:38:29.176Z,0
2017-01-20T04:39:29.189Z,0
2017-01-20T04:40:44.125Z,0
2017-01-20T04:41:29.220Z,0
2017-01-20T04:42:29.234Z,0
2017-01-20T04:43:29.249Z,0
2017-01-20T04:44:29.267Z,0
2017-01-20T04:45:29.281Z,0
2017-01-20T04:46:29.290Z,0
2017-01-20T04:47:44.226Z,0
2017-01-20T04:49:29.344Z,0
2017-01-20T04:50:29.349Z,0
2017-01-20T04:51:29.372Z,0
2017-01-20T04:52:29.379Z,0
2017-01-20T04:53:29.396Z,0
2017-01-20T04:54:29.713Z,0
2017-01-20T04:55:29.423Z,0
2017-01-20T04:56:29.447Z,0
2017-01-20T04:57:44.376Z,0
2017-01-20T04:58:29.468Z,0
2017-01-20T04:59:29.483Z,0
2017-01-20T05:00:29.499Z,0
2017-01-20T05:01:29.511Z,0
2017-01-20T05:02:29.532Z,0
2017-01-20T05:03:29.547Z,0
2017-01-20T05:04:29.558Z,0
2017-01-20T05:05:29.571Z,0
2017-01-20T05:06:29.589Z,0
2017-01-20T05:07:29.604Z,0
2017-01-20T05:08:29.618Z,0
2017-01-20T05:09:44.550Z,0
2017-01-20T05:10:29.650Z,0
2017-01-20T05:11:29.664Z,0
2017-01-20T05:12:29.676Z,0
2017-01-20T05:13:29.694Z,0
2017-01-20T05:14:29.703Z,0
2017-01-20T05:15:29.725Z,0
2017-01-20T05:16:29.736Z,0
2017-01-20T05:17:29.751Z,0
2017-01-20T05:18:29.774Z,0
2017-01-20T05:19:29.780Z,0
2017-01-20T05:20:29.794Z,0
2017-01-20T05:21:45.033Z,0
2017-01-20T05:24:29.857Z,0
2017-01-20T05:25:44.792Z,0
2017-01-20T05:26:29.881Z,0
2017-01-20T05:27:29.898Z,0
2017-01-20T05:28:29.916Z,0
2017-01-20T05:29:29.927Z,0
2017-01-20T05:30:29.941Z,0
2017-01-20T05:31:44.876Z,0
2017-01-20T05:32:29.974Z,0
2017-01-20T05:33:44.910Z,0
2017-01-20T05:34:44.921Z,0
2017-01-20T05:35:30.016Z,0
2017-01-20T05:36:30.028Z,0
2017-01-20T05:37:30.045Z,0
2017-01-20T05:38:30.062Z,0
2017-01-20T05:39:30.085Z,0
2017-01-20T05:40:30.092Z,0
2017-01-20T05:41:45.021Z,0
2017-01-20T05:42:30.121Z,0
2017-01-20T05:43:30.142Z,0
2017-01-20T05:44:30.148Z,0
2017-01-20T05:45:30.163Z,0
2017-01-20T05:46:30.179Z,0
2017-01-20T05:47:30.194Z,0
2017-01-20T05:48:45.125Z,0
2017-01-20T05:49:30.223Z,0
2017-01-20T05:50:30.237Z,0
2017-01-20T05:51:30.257Z,0
2017-01-20T05:52:45.187Z,0
2017-01-20T05:53:30.284Z,0
2017-01-20T05:54:30.296Z,0
2017-01-20T05:55:30.312Z,0
2017-01-20T05:57:45.257Z,0
2017-01-20T05:58:30.356Z,0
2017-01-20T05:59:30.376Z,0
2017-01-20T06:00:30.387Z,0
2017-01-20T06:01:30.403Z,0
2017-01-20T06:02:30.417Z,0
2017-01-20T06:03:30.430Z,0
2017-01-20T06:04:30.446Z,0
2017-01-20T06:05:45.376Z,0
2017-01-20T06:06:30.476Z,0
2017-01-20T06:07:30.492Z,0
2017-01-20T06:08:30.506Z,0
2017-01-20T06:09:45.435Z,0
2017-01-20T06:11:30.549Z,0
2017-01-20T06:12:45.484Z,0
2017-01-20T06:13:30.580Z,0
2017-01-20T06:14:30.592Z,0
2017-01-20T06:15:30.607Z,0
2017-01-20T06:16:30.621Z,0
2017-01-20T06:17:30.638Z,0
2017-01-20T06:18:30.656Z,0
2017-01-20T06:19:45.583Z,0
2017-01-20T06:20:45.597Z,0
2017-01-20T06:21:30.702Z,0
2017-01-20T06:22:30.713Z,0
2017-01-20T06:23:45.642Z,0
2017-01-20T06:24:45.656Z,0
2017-01-20T06:26:30.770Z,0
2017-01-20T06:27:30.787Z,0
2017-01-20T06:28:30.798Z,4
2017-01-20T06:29:30.813Z,0
2017-01-20T06:30:30.829Z,0
2017-01-20T06:31:30.844Z,4
2017-01-20T06:32:30.857Z,4
2017-01-20T06:33:30.870Z,4
2017-01-20T06:34:30.885Z,4
2017-01-20T06:35:30.925Z,4
2017-01-20T06:36:30.916Z,8
2017-01-20T06:37:30.933Z,8
2017-01-20T06:38:45.864Z,8
2017-01-20T06:39:45.877Z,12
2017-01-20T06:40:30.978Z,12
2017-01-20T06:42:31.003Z,16
2017-01-20T06:43:31.021Z,20
2017-01-20T06:44:45.953Z,24
2017-01-20T06:45:45.986Z,24
2017-01-20T06:46:31.060Z,28
2017-01-20T06:47:31.079Z,36
2017-01-20T06:48:31.090Z,40
2017-01-20T06:49:46.025Z,44
2017-01-20T06:50:31.126Z,48
2017-01-20T06:51:31.137Z,52
2017-01-20T06:52:31.151Z,56
2017-01-20T06:53:31.164Z,64
2017-01-20T06:54:31.177Z,64
2017-01-20T06:55:31.200Z,64
2017-01-20T06:56:46.125Z,60
2017-01-20T06:57:31.224Z,68
2017-01-20T06:58:31.239Z,76
2017-01-20T06:59:31.257Z,80
2017-01-20T07:00:46.184Z,84
2017-01-20T07:01:31.286Z,88
2017-01-20T07:02:31.295Z,92
2017-01-20T07:03:31.312Z,92
2017-01-20T07:04:31.323Z,100
2017-01-20T07:05:31.339Z,108
2017-01-20T07:06:46.273Z,120
2017-01-20T07:07:31.370Z,132
2017-01-20T07:08:31.389Z,136
2017-01-20T07:10:46.333Z,164
2017-01-20T07:11:31.437Z,172
2017-01-20T07:12:46.364Z,176
2017-01-20T07:13:31.460Z,188
2017-01-20T07:14:31.472Z,200
2017-01-20T07:15:31.489Z,216
2017-01-20T07:16:46.419Z,232
2017-01-20T07:17:46.441Z,244
2017-01-20T07:18:31.532Z,244
2017-01-20T07:19:31.549Z,248
2017-01-20T07:20:46.482Z,256
2017-01-20T07:21:31.576Z,268
2017-01-20T07:22:46.508Z,288
2017-01-20T07:23:46.522Z,304
2017-01-20T07:24:31.628Z,320
2017-01-20T07:25:31.636Z,348
2017-01-20T07:26:31.647Z,372
2017-01-20T07:28:46.600Z,392
2017-01-20T07:29:31.693Z,420
2017-01-20T07:30:31.715Z,472
2017-01-20T07:31:31.725Z,516
2017-01-20T07:32:46.656Z,572
2017-01-20T07:33:31.755Z,596
2017-01-20T07:34:31.769Z,616
2017-01-20T07:35:31.802Z,608
2017-01-20T07:36:31.800Z,600
2017-01-20T07:37:31.816Z,576
2017-01-20T07:38:46.746Z,520
2017-01-20T07:39:46.760Z,500
2017-01-20T07:40:31.861Z,512
2017-01-20T07:41:31.870Z,556
2017-01-20T07:42:31.889Z,624
2017-01-20T07:44:46.832Z,700
2017-01-20T07:45:31.932Z,656
2017-01-20T07:46:31.946Z,640
2017-01-20T07:47:46.881Z,624
2017-01-20T07:48:31.980Z,648
2017-01-20T07:49:31.991Z,688
2017-01-20T07:50:32.011Z,784
2017-01-20T07:51:32.024Z,916
2017-01-20T07:52:32.037Z,1040
2017-01-20T07:53:32.052Z,1052
2017-01-20T07:54:32.067Z,1060
2017-01-20T07:55:32.082Z,1056
2017-01-20T07:56:32.096Z,1004
2017-01-20T07:57:32.110Z,972
2017-01-20T07:58:47.457Z,980
2017-01-20T07:59:47.058Z,1040
2017-01-20T08:01:32.168Z,1120
2017-01-20T08:02:32.185Z,1132
2017-01-20T08:03:47.124Z,1108
2017-01-20T08:04:32.215Z,1100
2017-01-20T08:05:32.234Z,1096
2017-01-20T08:06:47.167Z,1100
2017-01-20T08:07:32.258Z,1164
2017-01-20T08:08:32.271Z,1172
2017-01-20T08:09:47.209Z,1148
2017-01-20T08:10:32.326Z,1156
2017-01-20T08:11:32.319Z,1176
2017-01-20T08:12:32.335Z,1212
2017-01-20T08:13:32.410Z,1200
2017-01-20T08:14:47.283Z,1176
2017-01-20T08:15:32.386Z,1184
2017-01-20T08:17:32.415Z,1200
2017-01-20T08:18:32.423Z,1180
2017-01-20T08:19:47.356Z,1240
2017-01-20T08:20:32.457Z,1368
2017-01-20T08:21:32.488Z,1532
2017-01-20T08:22:32.488Z,1636
2017-01-20T08:23:32.498Z,1780
2017-01-20T08:24:47.433Z,1836
2017-01-20T08:25:32.528Z,1780
2017-01-20T08:26:32.547Z,1728
2017-01-20T08:27:32.559Z,1632
2017-01-20T08:28:32.577Z,1504
2017-01-20T08:29:32.596Z,1576
2017-01-20T08:30:32.608Z,2000
2017-01-20T08:31:32.622Z,2420
2017-01-20T08:32:32.642Z,2308
2017-01-20T08:33:32.652Z,1956
2017-01-20T08:34:32.671Z,1804
2017-01-20T08:35:47.811Z,1916
2017-01-20T08:36:32.695Z,2048
2017-01-20T08:37:32.719Z,2016
2017-01-20T08:38:47.655Z,2036
2017-01-20T08:39:32.745Z,2000
2017-01-20T08:40:32.763Z,1944
2017-01-20T08:41:47.690Z,1808
2017-01-20T08:42:32.811Z,1732
2017-01-20T08:43:32.809Z,1640
2017-01-20T08:44:33.201Z,1588
2017-01-20T08:45:32.848Z,1604
2017-01-20T08:46:32.850Z,1732
2017-01-20T08:47:32.867Z,1880
2017-01-20T08:48:32.881Z,2384
2017-01-20T08:49:32.899Z,2864
2017-01-20T08:50:32.914Z,2864
2017-01-20T08:51:47.848Z,2604
2017-01-20T08:52:32.944Z,2392
2017-01-20T08:53:33.351Z,2288
2017-01-20T08:54:47.895Z,2544
2017-01-20T08:55:33.401Z,2872
2017-01-20T08:56:33.004Z,3148
2017-01-20T08:57:33.023Z,3136
2017-01-20T08:58:33.038Z,2944
2017-01-20T09:00:33.078Z,2592
2017-01-20T09:01:33.086Z,2524
2017-01-20T09:02:33.108Z,2476
2017-01-20T09:03:33.131Z,2428
2017-01-20T09:04:33.135Z,2400
2017-01-20T09:05:33.150Z,2380
2017-01-20T09:06:33.172Z,2516
2017-01-20T09:07:48.098Z,2976
2017-01-20T09:09:33.210Z,3408
2017-01-20T09:10:33.228Z,3372
2017-01-20T09:11:33.248Z,3248
2017-01-20T09:12:33.262Z,3236
2017-01-20T09:13:33.278Z,3248
2017-01-20T09:14:33.295Z,3436
2017-01-20T09:15:33.311Z,3716
2017-01-20T09:16:33.326Z,3808
2017-01-20T09:17:33.342Z,3656
2017-01-20T09:20:33.391Z,3400
2017-01-20T09:21:33.407Z,3244
2017-01-20T09:22:48.339Z,2864
2017-01-20T09:23:33.441Z,2724
2017-01-20T09:24:33.453Z,2736
2017-01-20T09:25:33.472Z,2816
2017-01-20T09:26:33.487Z,2892
2017-01-20T09:27:33.506Z,3096
2017-01-20T09:28:33.524Z,3136
2017-01-20T09:29:33.538Z,2900
2017-01-20T09:30:33.554Z,2876
2017-01-20T09:31:33.569Z,3068
2017-01-20T09:32:33.585Z,3396
2017-01-20T09:33:48.521Z,4444
2017-01-20T09:34:33.624Z,5092
2017-01-20T09:35:48.549Z,5308
2017-01-20T09:36:33.652Z,5068
2017-01-20T09:37:33.665Z,4472
2017-01-20T09:38:33.683Z,3856
2017-01-20T09:39:33.696Z,3352
2017-01-20T09:40:33.716Z,3060
2017-01-20T09:41:33.733Z,2928
2017-01-20T09:42:33.746Z,2820
2017-01-20T09:43:33.767Z,2808
2017-01-20T09:44:33.785Z,2772
2017-01-20T09:45:48.715Z,2632
2017-01-20T09:46:33.814Z,2660
2017-01-20T09:49:33.865Z,3444
2017-01-20T09:50:48.797Z,3200
2017-01-20T09:53:33.933Z,2820
2017-01-20T09:54:48.864Z,2648
2017-01-20T09:55:33.963Z,2532
2017-01-20T09:56:33.986Z,2484
2017-01-20T09:57:33.994Z,2716
2017-01-20T09:58:34.022Z,2928
2017-01-20T09:59:34.026Z,2856
2017-01-20T10:00:48.963Z,2800
2017-01-20T10:01:48.983Z,2792
2017-01-20T10:02:34.078Z,2728
2017-01-20T10:03:34.095Z,2708
2017-01-20T10:04:34.108Z,2776
2017-01-20T10:05:34.129Z,2752
2017-01-20T10:06:34.142Z,2760
2017-01-20T10:07:34.160Z,2760
2017-01-20T10:08:34.179Z,2712
2017-01-20T10:09:34.194Z,2548
2017-01-20T10:10:49.129Z,2308
2017-01-20T10:11:34.227Z,2220
2017-01-20T10:12:34.244Z,2160
2017-01-20T10:13:34.260Z,2204
2017-01-20T10:14:49.202Z,2324
2017-01-20T10:15:34.294Z,2424
2017-01-20T10:16:49.228Z,2628
2017-01-20T10:17:34.333Z,2796
2017-01-20T10:18:34.342Z,2980
2017-01-20T10:19:49.280Z,3076
2017-01-20T10:20:34.375Z,3144
2017-01-20T10:21:49.310Z,3244
2017-01-20T10:22:49.325Z,3356
2017-01-20T10:24:34.439Z,3452
2017-01-20T10:25:34.460Z,3644
2017-01-20T10:26:49.389Z,3964
2017-01-20T10:27:34.490Z,4132
2017-01-20T10:28:34.511Z,4488
2017-01-20T10:29:49.444Z,4844
2017-01-20T10:30:34.928Z,4872
2017-01-20T10:31:34.557Z,4804
2017-01-20T10:32:34.575Z,4676
2017-01-20T10:34:34.605Z,4264
2017-01-20T10:35:34.621Z,3964
2017-01-20T10:36:34.638Z,3692
2017-01-20T10:37:34.654Z,3456
2017-01-20T10:38:49.591Z,3248
2017-01-20T10:39:34.690Z,3172
2017-01-20T10:40:34.708Z,3076
2017-01-20T10:41:34.725Z,3000
2017-01-20T10:42:49.656Z,3028
2017-01-20T10:43:34.756Z,3160
2017-01-20T10:44:34.776Z,3444
2017-01-20T10:45:49.715Z,3676
2017-01-20T10:46:34.808Z,3716
2017-01-20T10:47:34.849Z,3752
2017-01-20T10:48:34.841Z,3812
2017-01-20T10:49:34.854Z,3880
2017-01-20T10:50:34.873Z,3908
2017-01-20T10:51:34.892Z,3940
2017-01-20T10:52:34.906Z,3952
2017-01-20T10:53:34.935Z,3840
2017-01-20T10:54:34.939Z,3712
2017-01-20T10:55:34.989Z,3652
2017-01-20T10:56:34.975Z,3560
2017-01-20T10:57:49.911Z,3344
2017-01-20T10:58:35.011Z,3244
2017-01-20T10:59:35.024Z,3248
2017-01-20T11:00:35.049Z,3300
2017-01-20T11:01:35.058Z,3316
2017-01-20T11:02:35.076Z,3412
2017-01-20T11:03:35.093Z,3484
2017-01-20T11:04:35.112Z,3508
2017-01-20T11:05:35.136Z,3520
2017-01-20T11:06:35.143Z,3636
2017-01-20T11:07:50.083Z,3852
2017-01-20T11:08:35.182Z,3984
2017-01-20T11:09:35.195Z,4132
2017-01-20T11:10:50.130Z,4292
2017-01-20T11:11:35.229Z,4424
2017-01-20T11:12:35.243Z,4620
2017-01-20T11:13:35.654Z,4740
2017-01-20T11:14:35.282Z,4736
2017-01-20T11:15:35.299Z,4684
2017-01-20T11:16:35.316Z,4536
2017-01-20T11:17:35.330Z,4408
2017-01-20T11:18:35.348Z,4396
2017-01-20T11:19:35.364Z,4328
2017-01-20T11:20:35.381Z,4212
2017-01-20T11:21:35.427Z,4084
2017-01-20T11:22:35.417Z,4128
2017-01-20T11:23:35.434Z,4428
2017-01-20T11:24:50.370Z,4932
2017-01-20T11:25:35.478Z,5160
2017-01-20T11:28:35.518Z,5948
2017-01-20T11:29:50.456Z,5924
2017-01-20T11:30:35.554Z,6040
2017-01-20T11:31:35.572Z,5980
2017-01-20T11:32:35.589Z,5660
2017-01-20T11:33:35.606Z,5236
2017-01-20T11:34:35.625Z,4924
2017-01-20T11:35:35.643Z,4872
2017-01-20T11:36:35.657Z,4748
2017-01-20T11:38:35.694Z,4560
2017-01-20T11:39:35.716Z,4484
2017-01-20T11:40:35.730Z,4508
2017-01-20T11:41:35.748Z,4652
2017-01-20T11:42:35.765Z,4644
2017-01-20T11:43:35.780Z,4468
2017-01-20T11:44:35.797Z,4256
2017-01-20T11:45:50.732Z,4276
2017-01-20T11:46:35.836Z,4416
2017-01-20T11:47:35.848Z,4460
2017-01-20T11:48:35.864Z,4424
2017-01-20T11:49:50.805Z,4612
2017-01-20T11:50:35.901Z,4628
2017-01-20T11:51:50.839Z,4512
2017-01-20T11:52:35.935Z,4472
2017-01-20T11:53:35.957Z,4400
2017-01-20T11:54:50.888Z,4172
2017-01-20T11:55:35.998Z,3980
2017-01-20T11:56:50.926Z,3724
2017-01-20T11:57:36.025Z,3624
2017-01-20T11:58:50.958Z,3588
2017-01-20T11:59:36.060Z,3696
2017-01-20T12:00:36.177Z,3948
2017-01-20T12:01:51.012Z,4280
2017-01-20T12:02:36.112Z,4412
2017-01-20T12:03:36.131Z,4360
2017-01-20T12:04:36.152Z,4156
2017-01-20T12:05:36.162Z,4108
2017-01-20T12:06:36.180Z,4164
2017-01-20T12:07:51.117Z,4056
2017-01-20T12:08:36.218Z,3932
2017-01-20T12:09:36.231Z,3820
2017-01-20T12:10:36.252Z,3776
2017-01-20T12:11:51.187Z,3668
2017-01-20T12:12:36.285Z,3636
2017-01-20T12:13:36.332Z,3736
2017-01-20T12:14:36.322Z,3828
2017-01-20T12:15:36.367Z,3776
2017-01-20T12:16:36.357Z,3772
2017-01-20T12:17:51.293Z,3752
2017-01-20T12:18:36.783Z,3772
2017-01-20T12:19:36.405Z,3808
2017-01-20T12:20:36.431Z,3688
2017-01-20T12:21:36.447Z,3576
2017-01-20T12:22:51.378Z,3628
2017-01-20T12:23:36.474Z,3608
2017-01-20T12:24:36.492Z,3476
2017-01-20T12:26:36.528Z,3756
2017-01-20T12:27:36.545Z,4044
2017-01-20T12:28:51.782Z,3992
2017-01-20T12:29:36.586Z,3936
2017-01-20T12:30:36.599Z,3892
2017-01-20T12:31:36.645Z,3860
2017-01-20T12:32:51.553Z,3884
2017-01-20T12:33:36.654Z,3760
2017-01-20T12:34:36.671Z,3584
2017-01-20T12:35:36.685Z,3632
2017-01-20T12:36:36.708Z,4008
2017-01-20T12:37:36.725Z,3948
2017-01-20T12:38:36.747Z,4080
2017-01-20T12:39:36.758Z,4040
2017-01-20T12:40:37.166Z,4080
2017-01-20T12:41:36.792Z,4116
2017-01-20T12:42:51.734Z,3796
2017-01-20T12:43:36.829Z,3500
2017-01-20T12:44:36.847Z,3268
2017-01-20T12:45:36.865Z,3032
2017-01-20T12:46:36.880Z,2860
2017-01-20T12:47:36.896Z,2816
2017-01-20T12:48:36.916Z,2720
2017-01-20T12:49:36.931Z,2664
2017-01-20T12:50:36.978Z,2716
2017-01-20T12:51:36.968Z,2772
2017-01-20T12:52:51.906Z,2720
2017-01-20T12:53:37.005Z,2728
2017-01-20T12:54:37.032Z,2732
2017-01-20T12:55:37.342Z,2640
2017-01-20T12:56:37.055Z,2608
2017-01-20T12:57:37.075Z,2656
2017-01-20T12:58:37.089Z,2660
2017-01-20T12:59:52.027Z,2724
2017-01-20T13:00:52.044Z,2784
2017-01-20T13:01:37.144Z,2900
2017-01-20T13:02:37.160Z,3008
2017-01-20T13:03:37.177Z,3116
2017-01-20T13:04:52.114Z,3212
2017-01-20T13:05:37.222Z,3200
2017-01-20T13:06:37.231Z,3108
2017-01-20T13:07:37.249Z,3012
2017-01-20T13:08:37.650Z,2968
2017-01-20T13:09:52.203Z,2852
2017-01-20T13:10:52.220Z,2788
2017-01-20T13:11:37.319Z,2712
2017-01-20T13:12:37.726Z,2648
2017-01-20T13:13:37.354Z,2712
2017-01-20T13:14:37.369Z,2768
2017-01-20T13:15:37.394Z,2700
2017-01-20T13:16:37.408Z,2652
2017-01-20T13:17:37.427Z,2644
2017-01-20T13:18:37.440Z,2636
2017-01-20T13:19:37.459Z,2684
2017-01-20T13:21:07.317Z,2752
2017-01-20T13:21:37.494Z,2704
2017-01-20T13:22:37.511Z,2632
2017-01-20T13:23:37.532Z,2596
2017-01-20T13:24:37.544Z,2616
2017-01-20T13:25:37.578Z,2600
2017-01-20T13:26:37.583Z,2576
2017-01-20T13:27:37.600Z,2556
2017-01-20T13:28:37.621Z,2484
2017-01-20T13:29:37.636Z,2300
2017-01-20T13:30:37.651Z,2168
2017-01-20T13:31:37.674Z,2116
2017-01-20T13:32:37.689Z,2120
2017-01-20T13:33:37.706Z,2100
2017-01-20T13:34:37.750Z,2084
2017-01-20T13:35:37.737Z,2048
2017-01-20T13:36:52.724Z,1984
2017-01-20T13:37:37.776Z,1976
2017-01-20T13:39:37.810Z,1976
2017-01-20T13:40:37.824Z,2008
2017-01-20T13:41:37.842Z,2160
2017-01-20T13:42:37.860Z,2472
2017-01-20T13:43:37.880Z,2356
2017-01-20T13:44:37.896Z,2312
2017-01-20T13:45:37.915Z,2276
2017-01-20T13:46:37.930Z,2108
2017-01-20T13:48:52.884Z,1872
2017-01-20T13:49:37.982Z,1820
2017-01-20T13:50:38.002Z,1764
2017-01-20T13:51:38.021Z,1692
2017-01-20T13:52:52.955Z,1644
2017-01-20T13:53:38.053Z,1656
2017-01-20T13:54:38.070Z,1692
2017-01-20T13:55:38.086Z,1712
2017-01-20T13:56:38.105Z,1692
2017-01-20T13:57:38.125Z,1656
2017-01-20T13:58:38.438Z,1612
2017-01-20T13:59:38.158Z,1568
2017-01-20T14:00:53.092Z,1544
2017-01-20T14:02:38.208Z,1516
2017-01-20T14:03:38.225Z,1468
2017-01-20T14:04:38.244Z,1416
2017-01-20T14:05:38.268Z,1356
2017-01-20T14:06:38.277Z,1300
2017-01-20T14:07:53.218Z,1244
2017-01-20T14:08:38.322Z,1228
2017-01-20T14:09:38.329Z,1224
2017-01-20T14:10:38.348Z,1224
2017-01-20T14:11:38.372Z,1232
2017-01-20T14:12:38.385Z,1208
2017-01-20T14:13:38.404Z,1176
2017-01-20T14:14:38.416Z,1124
2017-01-20T14:15:38.434Z,1088
2017-01-20T14:16:38.483Z,1072
2017-01-20T14:17:38.478Z,1060
2017-01-20T14:18:38.495Z,1048
2017-01-20T14:19:38.509Z,1028
2017-01-20T14:20:38.521Z,992
2017-01-20T14:21:38.542Z,928
2017-01-20T14:22:38.557Z,872
2017-01-20T14:23:38.571Z,860
2017-01-20T14:24:38.653Z,896
2017-01-20T14:25:38.609Z,944
2017-01-20T14:26:38.623Z,956
2017-01-20T14:27:38.642Z,944
2017-01-20T14:28:38.660Z,928
2017-01-20T14:29:53.595Z,924
2017-01-20T14:30:39.081Z,920
2017-01-20T14:31:38.714Z,912
2017-01-20T14:32:53.644Z,892
2017-01-20T14:34:39.154Z,892
2017-01-20T14:35:38.782Z,876
2017-01-20T14:36:39.181Z,840
2017-01-20T14:37:38.821Z,808
2017-01-20T14:38:38.828Z,788
2017-01-20T14:39:53.916Z,764
2017-01-20T14:40:38.867Z,752
2017-01-20T14:41:38.882Z,736
2017-01-20T14:42:38.900Z,716
2017-01-20T14:43:53.837Z,692
2017-01-20T14:44:38.935Z,684
2017-01-20T14:45:53.871Z,664